Create Custom Reports and Graphics: Custom Report

Belmont 8000'

Squaw Valley

9/17/19 9:45 AM (-07:00)
Updated Every 15 Minutes
Temp 39.6 °F   4.0
RH 64 %   4
Dew Pt 28.6 °F   5.3
Wet Bulb 34.6 °F   4.2
Wind Dir SSW | 198 °
Wind Spd 7.3 mph   12.0
Wind Gust 14.5 mph   17.5
WindChill 34.2 °F   0.6
Daily Min Temp 28.3 °F   9.2
Daily Max Temp 39.8 °F   6.3
Latest Rain 0.00 In
Daily Rain 0.03 In

Last 24 Hours

Squaw-Belmont 8000'

Hourly Data | America/Los_Angeles
as of 9/17/19 9:53 AM PDT
Date & Time Temp (°F) RH (%) Dew Pt (°F) Wet Bulb (°F) Wind Dir (°) Wind Spd (mph) Wind Gust (mph) WindChill (°F) Latest Rain (In) Daily Min Temp (°F) Daily Max Temp (°F) Daily Rain (In)
9/17/19 - 0900 37.0 67 27.2 32.7 SW | 222 6.7 12.7 30.0 0.01 28.3 37.0 0.03
9/17/19 - 0800 34.0 71 25.8 30.5 SW | 226 6.9 11.5 26.8 0.00 28.3 34.1 0.02
9/17/19 - 0700 32.0 80 26.6 29.7 SW | 226 5.7 8.8 25.1 0.00 28.3 32.0 0.02
9/17/19 - 0600 30.7 86 27.0 29.1 SW | 224 2.7 8.1 28.4 0.00 28.3 31.4 0.02
9/17/19 - 0500 31.1 88 27.8 29.6 WSW | 237 3.5 6.5 27.2 0.01 28.3 31.4 0.02
9/17/19 - 0400 29.8 94 28.3 29.2 SW | 223 1.0 3.7 29.3 0.01 28.3 30.2 0.01
9/17/19 - 0300 28.8 94 27.2 28.2 WSW | 245 0.4 2.5 29.0 0.00 28.3 30.2 0.00
9/17/19 - 0200 28.5 94 27.0 27.9 WSW | 250 1.0 2.8 29.2 0.00 28.3 30.2 0.00
9/17/19 - 0100 28.9 94 27.4 28.3 NW | 314 2.0 6.4 28.7 0.00 28.5 30.2 0.00
9/17/19 - 0000 29.4 96 28.3 28.9 NW | 314 1.8 5.9 29.2 0.00 29.1 46.1 0.49
9/16/19 - 2300 30.7 92 28.5 29.8 W | 281 2.4 7.0 29.7 0.00 29.4 46.1 0.49
9/16/19 - 2200 30.7 95 29.5 30.2 WSW | 247 4.1 10.6 26.7 0.00 29.4 46.1 0.49
9/16/19 - 2100 30.9 94 29.3 30.2 WSW | 242 6.6 13.6 25.0 0.01 29.4 46.1 0.49
9/16/19 - 2000 31.2 99 30.9 31.1 SW | 225 10.9 17.8 22.9 0.00 29.4 46.1 0.48
9/16/19 - 1900 31.6 99 31.3 31.5 SW | 219 11.4 21.6 22.8 0.01 29.4 46.1 0.48
9/16/19 - 1800 31.6 99 31.5 31.6 W | 269 6.1 14.4 26.0 0.02 29.4 46.1 0.47
9/16/19 - 1700 31.3 98 30.9 31.1 SW | 234 7.9 19.3 26.1 0.07 29.4 46.1 0.45
9/16/19 - 1600 32.9 96 31.9 32.5 SW | 215 9.9 19.0 25.0 0.17 29.4 46.1 0.38
9/16/19 - 1500 33.0 95 31.7 32.4 SW | 226 9.1 23.5 25.4 0.01 29.4 46.1 0.21
9/16/19 - 1400 31.6 98 31.0 31.3 SSW | 207 7.0 18.9 25.2 0.00 29.4 46.1 0.20
9/16/19 - 1300 30.4 96 29.5 30.0 WNW | 282 1.6 17.2 29.1 0.01 29.4 46.1 0.20
9/16/19 - 1200 31.8 98 31.2 31.4 SSW | 211 13.8 39.7 25.6 0.18 31.7 46.1 0.19
9/16/19 - 1100 38.1 84 33.6 35.9 S | 184 14.8 33.0 32.9 0.01 37.5 46.1 0.01
9/16/19 - 1000 42.0 73 33.9 38.0 S | 186 19.8 36.7 33.8 0.00 37.5 46.1 0.00
9/16/19 - 0900 41.0 76 34.0 37.5 S | 187 16.2 33.1 32.0 0.00 37.5 46.1 0.00
Max 42.0 99 34.0 38.0 - 19.8 39.7 33.8 0.18 37.5 46.1 0.49
Avg 32.4 90 29.7 31.1 - 6.9 15.8 27.6 0.02 - - -
Min 28.5 67 25.8 27.9 - 0.4 2.5 22.8 0.00 28.3 30.2 0.00
Total - - - - - - - - 0.52 - - -

Last 30 Days

Squaw-Belmont 8000'

Daily Data | America/Los_Angeles
as of 9/17/19 9:53 AM PDT
Date Daily Max Temp (°F) Max Temp Time Daily Min Temp (°F) Min Temp Time Daily Rain (In) Seasonal Rainfall (In) Wind Spd (mph) Daily Max Wind (mph) Max Wind Time Max Wind Dir (°) Max RH (%) Min RH (%) Wet Bulb (°F) WetB Hrs <28F (hrs) Bat Volt Min Day (V)
9/16/19 46.1 0010 29.1 2345 0.49 56.63 9.1 39.7 1101 SE | 143 100 40 33.2 0.0 13.32
9/15/19 62.9 1242 45.8 2348 0.00 56.14 9.5 34.6 1601 WSW | 248 49 22 41.2 0.0 13.09
9/14/19 70.0 1243 53.7 0151 0.00 56.14 7.3 24.7 1420 SW | 215 34 14 43.0 0.0 13.05
9/13/19 69.7 1235 49.6 0510 0.00 56.14 4.0 16.8 1356 SSW | 210 46 17 43.0 0.0 13.05
9/12/19 64.5 1358 41.8 0639 0.00 56.14 4.2 19.2 1221 WSW | 241 69 16 41.1 0.0 13.10
9/11/19 57.1 1424 36.2 0631 0.00 56.14 3.4 14.1 2248 ESE | 112 87 36 39.1 0.0 13.18
9/10/19 51.1 1204 35.5 0346 0.00 56.14 6.0 18.5 1736 W | 275 92 35 36.4 0.0 13.22
9/9/19 54.4 1331 37.8 2355 0.00 56.14 6.7 24.0 1235 WSW | 250 88 21 37.3 0.0 13.16
9/8/19 56.0 1338 41.7 0023 0.00 56.14 8.8 21.4 1442 SSW | 192 86 28 38.0 0.0 13.16
9/7/19 65.0 1434 43.7 2359 0.00 56.14 10.0 26.4 1115 SSW | 208 68 36 45.2 0.0 13.07
9/6/19 64.4 1436 52.6 2243 0.00 56.14 7.9 28.8 0953 S | 170 71 39 48.9 0.0 13.10
9/5/19 70.9 1125 55.2 2349 0.00 56.14 5.5 22.6 1723 WSW | 256 70 39 51.3 0.0 13.04
9/4/19 71.3 1512 57.6 0620 0.04 56.14 4.7 18.6 0307 SSW | 213 65 38 51.9 0.0 13.04
9/3/19 71.5 1359 56.8 0640 0.00 56.10 8.6 24.3 1545 WSW | 241 58 33 50.5 0.0 13.05
9/2/19 73.4 1143 57.8 2048 0.00 56.10 8.2 25.0 1441 WSW | 245 60 30 49.5 0.0 13.04
9/1/19 72.6 1254 54.5 0503 0.00 56.10 9.6 26.0 0131 SSW | 205 50 11 46.1 0.0 13.04
8/31/19 70.6 1136 53.6 0631 0.00 56.10 7.6 20.2 2323 SW | 219 51 16 44.2 0.0 13.05
8/30/19 67.8 1313 51.8 0602 0.00 56.10 9.8 28.8 0508 SSW | 204 69 22 46.0 0.0 13.08
8/29/19 69.3 1153 53.0 2127 0.00 56.10 8.5 26.2 1446 SW | 217 79 35 50.0 0.0 13.06
8/28/19 77.9 1158 54.7 2322 0.00 56.10 6.4 19.2 1406 SSW | 213 59 33 52.0 0.0 13.00
8/27/19 79.0 1538 57.8 0614 0.00 56.10 2.8 15.7 1637 WSW | 255 55 22 50.8 0.0 12.98
8/26/19 77.1 1409 52.6 0347 0.00 56.10 3.2 13.7 1457 WNW | 283 70 15 49.7 0.0 13.01
8/25/19 70.6 1510 55.6 2342 0.00 56.10 8.2 21.4 0553 WSW | 242 62 18 49.6 0.0 13.04
8/24/19 72.7 1333 57.4 0001 0.00 56.10 9.0 23.4 1812 WSW | 257 77 39 52.5 0.0 13.02
8/23/19 74.5 1204 51.0 0608 0.00 56.10 3.3 17.2 1713 SW | 220 77 29 50.8 0.0 13.02
8/22/19 69.3 1348 51.6 0518 0.00 56.10 4.1 15.3 0030 NNW | 336 76 18 49.9 0.0 13.04
8/21/19 73.2 1158 51.0 0428 0.00 56.10 5.0 20.6 1631 WSW | 245 54 12 43.3 0.0 13.01
8/20/19 72.7 1156 52.0 0621 0.00 56.10 6.6 19.5 1755 SSW | 211 59 17 45.3 0.0 13.03
8/19/19 70.4 1200 53.2 2344 0.00 56.10 9.5 28.5 0115 SSW | 206 62 25 46.6 0.0 13.04
8/18/19 74.2 1202 54.2 0058 0.00 56.10 9.0 25.2 2317 S | 175 65 23 47.6 0.0 13.02
Max 79.0 - 57.8 - 0.49 - 10.0 39.7 - - 100 40 52.5 0.0 13.32
Avg - - - - - - 6.9 - - - - - 45.8 - -
Min 46.1 - 29.1 - 0.00 - 2.8 13.7 - - 34 11 33.2 0.0 12.98
Calm: 1.0%
Calm: 0.0%